»·PEaware :: GTI802 KDEN-EETN

GTI802 :: KDEN-EETN

FLIGHT INFORMATION

Flight Status: Arrived
Operator:
Atlas Air
More flights by this operator :: More flights under this callsign
Pilot: Jerome G. (4242)
Aircraft: BOEING 747-400 (WINGLETS)
(B744)
More flights by this aircraft type
Origin: KDEN Denver Intl
United States
Destination: EETN Tallinn
Estonia
More flights between these airports :: More routes between these airports
Route: YELLO1 RAP DCT DPR J107 HML DCT YRL DCT MERKA DCT 60N080W/N0489F330 DCT YFB DCT 67N050W/M084F330 68N040W 69N030W/M083F350 69N020W 68N010W 67N000E/N0490F350 DCT XELRU DCT GIKAV L80 TOGMI P855 DOBAN DOBA1L
File this flight plan on PilotEdge
Remarks:
Altitude:
(Current/Filed)
35,000ft
Speed:
(Current/Filed)
480kts
Departed: 29-Jul-17 12:38 AM
Arrived: 29-Jul-17 09:58 AM
Distance/Time
Traveled:
4340nm/9:20
Distance/Time
To Go:
Arrived

Flight Plot

Page will automatically refresh every two minutes.

Flight plan parsing failed; only flown route is shown


Map Options




Map Legend


Flown Route
Filed Route
Departure Airport
Arrival Airport
Navaid (VOR, NDB)
Fix

Horizontal Profiles

Position Reports

Time Latitude Longitude Heading Altitude Ground
Speed
28-Jul-17 23:47 39.829328 -104.681614 180 5444ft 0kts
28-Jul-17 23:48 39.829328 -104.681614 180 5444ft 0kts
28-Jul-17 23:49 39.829328 -104.681614 180 5444ft 0kts
28-Jul-17 23:50 39.829328 -104.681614 180 5444ft 0kts
28-Jul-17 23:51 39.829328 -104.681614 180 5444ft 0kts
28-Jul-17 23:52 39.829328 -104.681614 180 5444ft 0kts
28-Jul-17 23:53 39.829328 -104.681614 180 5444ft 0kts
28-Jul-17 23:54 39.829328 -104.681614 180 5444ft 0kts
28-Jul-17 23:55 39.829328 -104.681614 180 5444ft 0kts
28-Jul-17 23:56 39.829328 -104.681614 180 5444ft 0kts
28-Jul-17 23:57 39.829328 -104.681614 180 5444ft 0kts
28-Jul-17 23:58 39.829328 -104.681614 180 5444ft 0kts
28-Jul-17 23:59 39.829328 -104.681614 180 5444ft 0kts
29-Jul-17 00:00 39.829328 -104.681614 180 5444ft 0kts
29-Jul-17 00:01 39.829328 -104.681614 180 5444ft 0kts
29-Jul-17 00:02 39.829328 -104.681614 180 5444ft 0kts
29-Jul-17 00:03 39.829328 -104.681614 180 5444ft 0kts
29-Jul-17 00:04 39.829328 -104.681614 180 5444ft 0kts
29-Jul-17 00:05 39.829328 -104.681614 180 5444ft 0kts
29-Jul-17 00:06 39.829328 -104.681614 180 5444ft 0kts
29-Jul-17 00:07 39.829328 -104.681614 180 5444ft 0kts
29-Jul-17 00:08 39.829328 -104.681614 180 5444ft 0kts
29-Jul-17 00:09 39.829328 -104.681614 180 5444ft 0kts
29-Jul-17 00:10 39.829328 -104.681614 180 5444ft 0kts
29-Jul-17 00:11 39.829328 -104.681614 180 5444ft 0kts
29-Jul-17 00:12 39.829328 -104.681614 180 5444ft 0kts
29-Jul-17 00:13 39.829328 -104.681614 180 5444ft 0kts
29-Jul-17 00:14 39.829328 -104.681614 180 5444ft 0kts
29-Jul-17 00:15 39.829328 -104.681614 180 5444ft 0kts
29-Jul-17 00:16 39.829328 -104.681614 180 5444ft 0kts
29-Jul-17 00:17 39.829756 -104.681647 165 5444ft 2kts
29-Jul-17 00:18 39.830334 -104.682144 126 5444ft 0kts
29-Jul-17 00:19 39.830334 -104.682144 126 5444ft 0kts
29-Jul-17 00:20 39.830334 -104.682144 126 5444ft 0kts
29-Jul-17 00:21 39.830303 -104.682086 123 5444ft 3kts
29-Jul-17 00:22 39.830095 -104.678073 90 5444ft 15kts
29-Jul-17 00:23 39.829414 -104.671193 96 5444ft 22kts
29-Jul-17 00:24 39.829725 -104.663916 11 5444ft 12kts
29-Jul-17 00:25 39.834480 -104.662611 1 5444ft 19kts
29-Jul-17 00:26 39.840006 -104.662595 359 5444ft 21kts
29-Jul-17 00:27 39.846533 -104.662493 357 5444ft 23kts
29-Jul-17 00:28 39.852748 -104.662389 1 5444ft 20kts
29-Jul-17 00:29 39.856620 -104.666018 261 5444ft 22kts
29-Jul-17 00:30 39.856705 -104.674305 266 5444ft 21kts
29-Jul-17 00:31 39.856848 -104.682296 280 5444ft 20kts
29-Jul-17 00:32 39.860374 -104.685760 271 5444ft 20kts
29-Jul-17 00:33 39.863504 -104.692983 329 5444ft 31kts
29-Jul-17 00:34 39.870800 -104.694271 359 5444ft 23kts
29-Jul-17 00:35 39.876752 -104.694174 2 5444ft 21kts
29-Jul-17 00:36 39.882830 -104.694097 1 5444ft 22kts
29-Jul-17 00:37 39.889562 -104.694121 359 5444ft 22kts
29-Jul-17 00:38 39.895380 -104.694017 337 5444ft 19kts
29-Jul-17 00:39 39.895803 -104.695110 270 5444ft 6kts
29-Jul-17 00:40 39.895274 -104.696080 181 5444ft 0kts
29-Jul-17 00:41 39.893150 -104.696126 179 5444ft 57kts
29-Jul-17 00:42 39.842750 -104.694550 173 6857ft 199kts
29-Jul-17 00:43 39.790234 -104.683036 171 7460ft 261kts
29-Jul-17 00:44 39.711330 -104.666619 171 8338ft 307kts
29-Jul-17 00:45 39.647944 -104.597282 101 10030ft 335kts
29-Jul-17 00:46 39.701610 -104.463191 36 10563ft 421kts
29-Jul-17 00:47 39.792745 -104.410512 18 12347ft 436kts
29-Jul-17 00:48 39.909576 -104.359322 18 14507ft 449kts
29-Jul-17 00:49 40.029437 -104.307836 11 16578ft 458kts
29-Jul-17 00:50 40.153072 -104.338065 335 18349ft 467kts
29-Jul-17 00:51 40.272335 -104.410605 333 19966ft 478kts
29-Jul-17 00:52 40.394152 -104.485407 333 21414ft 489kts
29-Jul-17 00:53 40.524894 -104.535107 3 22689ft 506kts
29-Jul-17 00:54 40.662787 -104.488369 17 23833ft 519kts
29-Jul-17 00:55 40.801160 -104.427812 15 24816ft 529kts
29-Jul-17 00:56 40.940465 -104.368788 15 26046ft 530kts
29-Jul-17 00:57 41.080910 -104.309038 14 27311ft 531kts
29-Jul-17 00:58 41.222133 -104.248628 14 28492ft 533kts
29-Jul-17 00:59 41.363395 -104.187952 14 29648ft 535kts
29-Jul-17 01:00 41.505527 -104.126611 13 30777ft 536kts
29-Jul-17 01:01 41.647189 -104.065188 13 31212ft 536kts
29-Jul-17 01:02 41.788772 -104.003527 13 31196ft 535kts
29-Jul-17 01:03 41.930757 -103.941397 13 31179ft 535kts
29-Jul-17 01:04 42.072092 -103.879221 13 31180ft 536kts
29-Jul-17 01:05 42.213586 -103.816695 13 31175ft 535kts
29-Jul-17 01:06 42.353034 -103.754814 13 31174ft 534kts
29-Jul-17 01:07 42.433239 -103.719092 13 31171ft 533kts
29-Jul-17 01:08 42.573994 -103.656151 13 31165ft 532kts
29-Jul-17 01:09 42.714594 -103.592991 13 31166ft 530kts
29-Jul-17 01:10 42.854313 -103.529945 12 31163ft 529kts
29-Jul-17 01:11 42.993611 -103.466750 12 31172ft 527kts
29-Jul-17 01:12 43.133053 -103.403177 12 31175ft 527kts
29-Jul-17 01:13 43.271806 -103.339626 12 31194ft 526kts
29-Jul-17 01:14 43.406013 -103.257300 26 31195ft 536kts
29-Jul-17 01:15 43.531417 -103.145565 27 31209ft 538kts
29-Jul-17 01:16 43.655067 -103.034399 27 31142ft 537kts
29-Jul-17 01:17 43.780109 -102.921506 27 31153ft 535kts
29-Jul-17 01:18 43.904419 -102.808674 27 31153ft 534kts
29-Jul-17 01:19 44.028395 -102.695550 27 31142ft 532kts
29-Jul-17 01:20 44.151832 -102.582295 27 31124ft 529kts
29-Jul-17 01:21 44.274534 -102.469260 27 31123ft 529kts
29-Jul-17 01:22 44.397221 -102.355696 27 31115ft 529kts
29-Jul-17 01:23 44.520089 -102.241279 27 31104ft 529kts
29-Jul-17 01:24 44.642204 -102.126995 27 31103ft 528kts
29-Jul-17 01:25 44.764501 -102.011881 28 31100ft 527kts
29-Jul-17 01:26 44.884755 -101.899080 28 31099ft 522kts
29-Jul-17 01:27 45.004777 -101.784975 28 31100ft 520kts
29-Jul-17 01:28 45.123481 -101.666899 32 31096ft 521kts
29-Jul-17 01:29 45.236872 -101.539004 32 31100ft 521kts
29-Jul-17 01:30 45.350243 -101.411645 32 31104ft 519kts
29-Jul-17 01:31 45.464295 -101.284755 32 31099ft 518kts
29-Jul-17 01:32 45.577345 -101.157493 33 31104ft 518kts
29-Jul-17 01:33 45.690050 -101.029822 33 31103ft 517kts
29-Jul-17 01:34 45.802876 -100.901286 33 31104ft 517kts
29-Jul-17 01:35 45.914984 -100.772874 33 31107ft 516kts
29-Jul-17 01:36 46.025745 -100.645366 33 31119ft 513kts
29-Jul-17 01:37 46.136888 -100.516727 34 31130ft 511kts
29-Jul-17 01:38 46.247588 -100.387912 34 31137ft 512kts
29-Jul-17 01:39 46.358230 -100.258476 34 31137ft 512kts
29-Jul-17 01:40 46.469089 -100.128081 34 31134ft 513kts
29-Jul-17 01:41 46.579824 -99.997133 34 31131ft 514kts
29-Jul-17 01:42 46.690554 -99.865476 34 31130ft 512kts
29-Jul-17 01:43 46.800515 -99.734017 34 31137ft 512kts
29-Jul-17 01:44 46.910338 -99.602000 35 31138ft 512kts
29-Jul-17 01:45 47.020281 -99.469114 35 31135ft 511kts
29-Jul-17 01:46 47.128489 -99.337603 35 31135ft 511kts
29-Jul-17 01:47 47.237480 -99.204418 35 31134ft 510kts
29-Jul-17 01:48 47.346608 -99.070321 35 31133ft 510kts
29-Jul-17 01:49 47.455104 -98.936260 36 31131ft 509kts
29-Jul-17 01:50 47.563670 -98.801356 36 31129ft 508kts
29-Jul-17 01:51 47.671511 -98.666605 36 31139ft 507kts
29-Jul-17 01:52 47.779049 -98.531478 36 31137ft 506kts
29-Jul-17 01:53 47.886557 -98.395629 37 31134ft 505kts
29-Jul-17 01:54 47.993404 -98.259842 37 31132ft 505kts
29-Jul-17 01:55 48.100026 -98.123591 37 31130ft 505kts
29-Jul-17 01:56 48.205731 -97.987739 37 31123ft 505kts
29-Jul-17 01:57 48.312002 -97.850385 37 31122ft 505kts
29-Jul-17 01:58 48.418173 -97.712374 37 31118ft 505kts
29-Jul-17 01:59 48.524596 -97.573236 37 31107ft 505kts
29-Jul-17 02:00 48.630541 -97.433994 37 31099ft 506kts
29-Jul-17 02:01 48.736529 -97.294282 38 31095ft 506kts
29-Jul-17 02:02 48.842364 -97.153011 38 31094ft 506kts
29-Jul-17 02:03 48.945787 -97.007967 40 31096ft 507kts
29-Jul-17 02:04 49.047868 -96.860197 40 31098ft 507kts
29-Jul-17 02:05 49.150610 -96.711791 39 31099ft 507kts
29-Jul-17 02:06 49.252307 -96.565067 40 31099ft 507kts
29-Jul-17 02:07 49.354779 -96.415460 40 31098ft 508kts
29-Jul-17 02:08 49.456840 -96.265447 40 31098ft 509kts
29-Jul-17 02:09 49.558772 -96.114690 40 31098ft 509kts
29-Jul-17 02:10 49.660914 -95.962693 40 31102ft 509kts
29-Jul-17 02:11 49.762507 -95.810580 40 31104ft 509kts
29-Jul-17 02:12 49.863877 -95.657866 41 31102ft 509kts
29-Jul-17 02:13 49.965435 -95.503917 41 31115ft 509kts
29-Jul-17 02:14 50.066535 -95.349706 41 31111ft 511kts
29-Jul-17 02:15 50.167972 -95.194008 41 31110ft 511kts
29-Jul-17 02:16 50.267693 -95.039984 41 31116ft 511kts
29-Jul-17 02:17 50.368360 -94.883522 41 31112ft 510kts
29-Jul-17 02:18 50.469080 -94.725980 41 31104ft 510kts
29-Jul-17 02:19 50.569292 -94.568231 42 31096ft 510kts
29-Jul-17 02:20 50.669248 -94.409878 42 31088ft 510kts
29-Jul-17 02:21 50.769329 -94.250304 42 31082ft 510kts
29-Jul-17 02:22 50.869095 -94.090847 42 31075ft 510kts
29-Jul-17 02:23 50.968419 -93.930334 42 31071ft 510kts
29-Jul-17 02:24 51.068074 -93.769532 38 31068ft 509kts
29-Jul-17 02:25 51.180975 -93.635525 31 31069ft 506kts
29-Jul-17 02:26 51.293917 -93.506105 32 31067ft 506kts
29-Jul-17 02:27 51.408441 -93.374368 32 31062ft 506kts
29-Jul-17 02:28 51.522422 -93.242415 32 31054ft 506kts
29-Jul-17 02:29 51.636500 -93.108978 33 31043ft 506kts
29-Jul-17 02:30 51.750021 -92.975274 33 31030ft 506kts
29-Jul-17 02:31 51.863255 -92.841044 33 31017ft 505kts
29-Jul-17 02:32 51.976679 -92.705722 33 31003ft 505kts
29-Jul-17 02:33 52.089683 -92.570033 33 30990ft 507kts
29-Jul-17 02:34 52.202694 -92.433465 33 30978ft 506kts
29-Jul-17 02:35 52.315731 -92.295969 33 30969ft 505kts
29-Jul-17 02:36 52.427029 -92.159709 33 30964ft 506kts
29-Jul-17 02:37 52.539464 -92.021161 34 30959ft 506kts
29-Jul-17 02:38 52.652174 -91.881354 34 30954ft 506kts
29-Jul-17 02:39 52.764389 -91.741241 34 30954ft 507kts
29-Jul-17 02:40 52.876670 -91.600111 34 30948ft 508kts
29-Jul-17 02:41 52.989301 -91.457592 34 30943ft 508kts
29-Jul-17 02:42 53.101517 -91.314640 34 30938ft 509kts
29-Jul-17 02:43 53.214065 -91.170290 34 30936ft 509kts
29-Jul-17 02:44 53.326118 -91.025595 34 30936ft 510kts
29-Jul-17 02:45 53.438058 -90.880056 35 30936ft 510kts
29-Jul-17 02:46 53.549274 -90.734465 35 30934ft 510kts
29-Jul-17 02:47 53.660924 -90.587301 35 30933ft 510kts
29-Jul-17 02:48 53.772446 -90.439285 35 30931ft 511kts
29-Jul-17 02:49 53.865807 -90.315041 35 30929ft 511kts
29-Jul-17 02:50 53.977144 -90.165461 35 30928ft 511kts
29-Jul-17 02:51 54.088200 -90.014617 35 30927ft 511kts
29-Jul-17 02:52 54.217879 -89.837079 36 30926ft 511kts
29-Jul-17 02:53 54.328382 -89.684117 36 30924ft 511kts
29-Jul-17 02:54 54.420773 -89.557061 35 30920ft 511kts
29-Jul-17 02:55 54.531856 -89.403301 36 30915ft 511kts
29-Jul-17 02:56 54.641179 -89.250136 36 30907ft 511kts
29-Jul-17 02:57 54.751543 -89.094292 36 30897ft 511kts
29-Jul-17 02:58 54.861351 -88.938078 36 30886ft 511kts
29-Jul-17 02:59 54.970967 -88.780988 37 30870ft 511kts
29-Jul-17 03:00 55.080685 -88.622616 37 30859ft 511kts
29-Jul-17 03:01 55.189929 -88.463753 37 30846ft 512kts
29-Jul-17 03:02 55.299108 -88.303793 37 30831ft 512kts
29-Jul-17 03:03 55.408517 -88.142327 37 30824ft 512kts
29-Jul-17 03:04 55.517425 -87.980382 37 30817ft 513kts
29-Jul-17 03:05 55.626108 -87.817552 37 30810ft 513kts
29-Jul-17 03:06 55.734119 -87.654498 38 30805ft 513kts
29-Jul-17 03:07 55.842400 -87.489810 38 30802ft 513kts
29-Jul-17 03:08 55.950318 -87.324423 38 30802ft 512kts
29-Jul-17 03:09 56.058380 -87.157538 38 30803ft 514kts
29-Jul-17 03:10 56.166297 -86.989589 39 30805ft 514kts
29-Jul-17 03:11 56.274158 -86.820421 39 30808ft 513kts
29-Jul-17 03:12 56.381360 -86.650976 39 30812ft 513kts
29-Jul-17 03:13 56.488170 -86.480827 39 30815ft 512kts
29-Jul-17 03:14 56.595073 -86.309198 39 30818ft 512kts
29-Jul-17 03:15 56.701440 -86.137079 39 30821ft 513kts
29-Jul-17 03:16 56.806646 -85.965492 39 30824ft 513kts
29-Jul-17 03:17 56.912638 -85.791258 40 30824ft 511kts
29-Jul-17 03:18 57.018052 -85.616570 40 30824ft 512kts
29-Jul-17 03:19 57.123311 -85.440770 40 30827ft 512kts
29-Jul-17 03:20 57.228708 -85.263306 40 30892ft 512kts
29-Jul-17 03:21 57.333463 -85.085490 40 30922ft 511kts
29-Jul-17 03:22 57.438076 -84.906465 40 30929ft 510kts
29-Jul-17 03:23 57.541922 -84.727307 40 30933ft 509kts
29-Jul-17 03:24 57.645369 -84.547374 40 30965ft 509kts
29-Jul-17 03:25 57.748837 -84.365921 41 30974ft 508kts
29-Jul-17 03:26 57.850401 -84.186350 41 30983ft 508kts
29-Jul-17 03:27 57.952848 -84.003730 41 30988ft 508kts
29-Jul-17 03:28 58.055365 -83.819461 41 30994ft 508kts
29-Jul-17 03:29 58.157274 -83.634748 41 31001ft 508kts
29-Jul-17 03:30 58.259010 -83.448806 41 31006ft 509kts
29-Jul-17 03:31 58.360922 -83.260964 41 31010ft 509kts
29-Jul-17 03:32 58.462052 -83.072980 41 31016ft 508kts
29-Jul-17 03:33 58.563127 -82.883497 42 31033ft 507kts
29-Jul-17 03:34 58.663437 -82.693836 42 31044ft 507kts
29-Jul-17 03:35 58.763339 -82.503329 42 31048ft 506kts
29-Jul-17 03:36 58.862174 -82.313238 42 31052ft 506kts
29-Jul-17 03:37 58.961489 -82.120581 42 31055ft 507kts
29-Jul-17 03:38 59.060640 -81.926564 42 31058ft 505kts
29-Jul-17 03:39 59.159317 -81.731796 42 31061ft 504kts
29-Jul-17 03:40 59.257531 -81.536239 42 31063ft 505kts
29-Jul-17 03:41 59.355470 -81.339506 42 31066ft 505kts
29-Jul-17 03:42 59.453352 -81.141158 42 31067ft 504kts
29-Jul-17 03:43 59.550432 -80.942680 42 31069ft 503kts
29-Jul-17 03:44 59.647321 -80.742829 42 31071ft 502kts
29-Jul-17 03:45 59.743452 -80.542769 42 31072ft 502kts
29-Jul-17 03:46 59.838966 -80.343985 43 31074ft 502kts
29-Jul-17 03:47 59.934506 -80.140351 43 31075ft 502kts
29-Jul-17 03:48 60.028461 -79.934065 46 31076ft 503kts
29-Jul-17 03:49 60.116236 -79.715397 47 31034ft 505kts
29-Jul-17 03:50 60.204312 -79.495106 47 31037ft 505kts
29-Jul-17 03:51 60.293320 -79.276961 46 31064ft 504kts
29-Jul-17 03:52 60.381519 -79.056462 47 31880ft 506kts
29-Jul-17 03:53 60.469158 -78.834416 46 33169ft 501kts
29-Jul-17 03:54 60.555316 -78.613870 46 34221ft 497kts
29-Jul-17 03:55 60.640885 -78.392733 47 34972ft 495kts
29-Jul-17 03:56 60.724728 -78.173956 47 35065ft 495kts
29-Jul-17 03:57 60.809079 -77.951742 47 35067ft 494kts
29-Jul-17 03:58 60.893001 -77.728531 47 35044ft 493kts
29-Jul-17 03:59 60.976400 -77.504541 47 35036ft 494kts
29-Jul-17 04:00 61.059517 -77.279136 47 35027ft 494kts
29-Jul-17 04:01 61.142539 -77.051765 47 35007ft 494kts
29-Jul-17 04:02 61.224817 -76.824198 47 34997ft 493kts
29-Jul-17 04:03 61.306657 -76.595590 47 34985ft 493kts
29-Jul-17 04:04 61.388408 -76.364964 47 34977ft 494kts
29-Jul-17 04:05 61.469654 -76.133442 47 34969ft 495kts
29-Jul-17 04:06 61.550033 -75.902074 48 34961ft 495kts
29-Jul-17 04:07 61.630537 -75.668012 48 34955ft 495kts
29-Jul-17 04:08 61.710546 -75.432990 48 34951ft 494kts
29-Jul-17 04:09 61.790149 -75.196759 48 34949ft 491kts
29-Jul-17 04:10 61.868704 -74.961226 48 34948ft 489kts
29-Jul-17 04:11 61.946509 -74.725548 49 34950ft 488kts
29-Jul-17 04:12 62.024151 -74.487915 49 34956ft 490kts
29-Jul-17 04:13 62.101475 -74.248792 49 34959ft 489kts
29-Jul-17 04:14 62.178189 -74.009061 49 34943ft 488kts
29-Jul-17 04:15 62.254626 -73.767669 49 34946ft 488kts
29-Jul-17 04:16 62.329670 -73.528169 49 34949ft 490kts
29-Jul-17 04:17 62.405266 -73.284342 49 34954ft 490kts
29-Jul-17 04:18 62.480676 -73.038498 50 34960ft 490kts
29-Jul-17 04:19 62.555432 -72.792139 50 34970ft 489kts
29-Jul-17 04:20 62.629809 -72.544349 50 34980ft 488kts
29-Jul-17 04:21 62.703385 -72.296535 50 34994ft 488kts
29-Jul-17 04:22 62.776439 -72.047783 51 35009ft 488kts
29-Jul-17 04:23 62.849394 -71.796604 51 35026ft 489kts
29-Jul-17 04:24 62.921861 -71.544329 52 35103ft 490kts
29-Jul-17 04:25 62.994126 -71.289965 52 35125ft 492kts
29-Jul-17 04:26 63.065548 -71.035609 53 35130ft 492kts
29-Jul-17 04:27 63.136990 -70.778329 53 35130ft 492kts
29-Jul-17 04:28 63.207901 -70.520005 53 35132ft 492kts
29-Jul-17 04:29 63.278703 -70.259090 54 35132ft 492kts
29-Jul-17 04:30 63.348909 -69.997332 54 35133ft 493kts
29-Jul-17 04:31 63.418603 -69.734413 54 35137ft 493kts
29-Jul-17 04:32 63.488051 -69.469303 54 35140ft 493kts
29-Jul-17 04:33 63.556818 -69.203645 55 35144ft 493kts
29-Jul-17 04:34 63.624801 -68.941869 55 35148ft 493kts
29-Jul-17 04:35 63.692042 -68.673112 56 35149ft 493kts
29-Jul-17 04:36 63.759152 -68.405943 54 35150ft 494kts
29-Jul-17 04:37 63.829804 -68.137803 54 35149ft 496kts
29-Jul-17 04:38 63.899370 -67.867767 55 35145ft 496kts
29-Jul-17 04:39 63.970275 -67.599044 54 35138ft 496kts
29-Jul-17 04:40 64.040564 -67.326818 55 35131ft 499kts
29-Jul-17 04:41 64.110271 -67.051246 56 35121ft 503kts
29-Jul-17 04:42 64.179768 -66.772671 56 35110ft 505kts
29-Jul-17 04:43 64.249241 -66.490568 57 35099ft 507kts
29-Jul-17 04:44 64.318020 -66.207649 57 35089ft 507kts
29-Jul-17 04:45 64.386548 -65.922075 58 35079ft 508kts
29-Jul-17 04:46 64.453751 -65.638347 59 35075ft 510kts
29-Jul-17 04:47 64.521472 -65.348640 59 35072ft 513kts
29-Jul-17 04:48 64.589211 -65.054929 60 35071ft 516kts
29-Jul-17 04:49 64.656503 -64.759117 61 35070ft 518kts
29-Jul-17 04:50 64.723498 -64.460501 62 35069ft 520kts
29-Jul-17 04:51 64.790297 -64.158549 62 35074ft 521kts
29-Jul-17 04:52 64.856438 -63.855410 63 35078ft 524kts
29-Jul-17 04:53 64.922261 -63.549199 64 35079ft 525kts
29-Jul-17 04:54 64.987726 -63.240196 65 35076ft 525kts
29-Jul-17 04:55 65.052413 -62.930462 65 35079ft 526kts
29-Jul-17 04:56 65.116108 -62.620876 66 35077ft 527kts
29-Jul-17 04:57 65.179677 -62.307254 66 35076ft 527kts
29-Jul-17 04:58 65.242667 -61.991742 67 35075ft 528kts
29-Jul-17 04:59 65.305009 -61.674645 68 35072ft 527kts
29-Jul-17 05:00 65.366796 -61.355442 68 35077ft 527kts
29-Jul-17 05:01 65.427632 -61.036200 68 35077ft 526kts
29-Jul-17 05:02 65.487876 -60.715057 69 35077ft 525kts
29-Jul-17 05:03 65.547141 -60.394044 69 35078ft 525kts
29-Jul-17 05:04 65.605700 -60.071711 70 35078ft 524kts
29-Jul-17 05:05 65.663705 -59.747181 70 35079ft 523kts
29-Jul-17 05:06 65.720245 -59.425624 70 35082ft 522kts
29-Jul-17 05:07 65.767018 -59.155584 70 35083ft 519kts
29-Jul-17 05:08 65.822373 -58.831089 70 35087ft 516kts
29-Jul-17 05:09 65.885504 -58.454235 71 35090ft 513kts
29-Jul-17 05:10 65.938828 -58.130053 71 35095ft 512kts
29-Jul-17 05:11 65.982592 -57.859783 71 35098ft 512kts
29-Jul-17 05:12 66.034455 -57.534424 71 35104ft 511kts
29-Jul-17 05:13 66.085669 -57.207482 72 35110ft 510kts
29-Jul-17 05:14 66.135837 -56.881539 72 35115ft 507kts
29-Jul-17 05:15 66.185007 -56.556324 72 35120ft 504kts
29-Jul-17 05:16 66.232974 -56.233460 72 35127ft 503kts
29-Jul-17 05:17 66.280525 -55.907582 72 35134ft 502kts
29-Jul-17 05:18 66.327293 -55.581126 72 35143ft 502kts
29-Jul-17 05:19 66.373491 -55.252668 73 35146ft 501kts
29-Jul-17 05:20 66.418779 -54.924556 73 35152ft 500kts
29-Jul-17 05:21 66.463244 -54.596263 73 35158ft 498kts
29-Jul-17 05:22 66.507092 -54.266231 73 35164ft 498kts
29-Jul-17 05:23 66.550072 -53.936323 73 35169ft 498kts
29-Jul-17 05:24 66.592289 -53.605904 74 35175ft 496kts
29-Jul-17 05:25 66.633864 -53.273888 74 35182ft 496kts
29-Jul-17 05:26 66.674210 -52.945082 74 35186ft 495kts
29-Jul-17 05:27 66.714269 -52.611862 74 35190ft 494kts
29-Jul-17 05:28 66.753413 -52.279363 75 35193ft 494kts
29-Jul-17 05:29 66.791846 -51.945887 75 35197ft 493kts
29-Jul-17 05:30 66.829584 -51.611312 75 35198ft 492kts
29-Jul-17 05:31 66.866453 -51.277175 75 35199ft 491kts
29-Jul-17 05:32 66.902569 -50.942521 75 35200ft 490kts
29-Jul-17 05:33 66.939239 -50.607031 76 35200ft 490kts
29-Jul-17 05:34 66.973061 -50.270857 76 35200ft 489kts
29-Jul-17 05:35 67.008028 -49.935228 73 35200ft 489kts
29-Jul-17 05:36 67.051664 -49.607690 72 35199ft 488kts
29-Jul-17 05:37 67.094020 -49.277399 73 35198ft 488kts
29-Jul-17 05:38 67.138005 -48.947002 71 35197ft 487kts
29-Jul-17 05:39 67.180896 -48.616633 73 35197ft 487kts
29-Jul-17 05:40 67.222274 -48.285155 73 35196ft 486kts
29-Jul-17 05:41 67.262954 -47.951692 73 35195ft 485kts
29-Jul-17 05:42 67.302662 -47.619324 73 35193ft 483kts
29-Jul-17 05:43 67.341594 -47.286617 73 35192ft 483kts
29-Jul-17 05:44 67.379880 -46.952449 74 35190ft 481kts
29-Jul-17 05:45 67.417226 -46.619418 74 35192ft 480kts
29-Jul-17 05:46 67.453425 -46.289576 74 35190ft 478kts
29-Jul-17 05:47 67.489324 -45.955226 74 35190ft 477kts
29-Jul-17 05:48 67.524279 -45.622315 74 35188ft 475kts
29-Jul-17 05:49 67.558640 -45.287512 74 35178ft 475kts
29-Jul-17 05:50 67.592175 -44.953106 75 35174ft 475kts
29-Jul-17 05:51 67.624946 -44.618512 75 35174ft 474kts
29-Jul-17 05:52 67.657087 -44.282369 75 35172ft 473kts
29-Jul-17 05:53 67.688382 -43.946960 76 35147ft 472kts
29-Jul-17 05:54 67.718899 -43.611625 76 35144ft 471kts
29-Jul-17 05:55 67.748812 -43.274458 76 35141ft 470kts
29-Jul-17 05:56 67.777527 -42.942299 76 35138ft 468kts
29-Jul-17 05:57 67.805696 -42.607804 77 35137ft 465kts
29-Jul-17 05:58 67.833108 -42.273407 77 35134ft 462kts
29-Jul-17 05:59 67.859626 -41.940904 78 35140ft 461kts
29-Jul-17 06:00 67.885447 -41.607967 78 35138ft 461kts
29-Jul-17 06:01 67.910687 -41.273021 78 35137ft 462kts
29-Jul-17 06:02 67.935144 -40.938796 78 35135ft 461kts
29-Jul-17 06:03 67.960234 -40.603876 79 35133ft 460kts
29-Jul-17 06:04 67.982357 -40.269441 79 35131ft 458kts
29-Jul-17 06:05 68.007879 -39.937775 72 35131ft 457kts
29-Jul-17 06:06 68.049649 -39.619797 70 35129ft 458kts
29-Jul-17 06:07 68.090850 -39.298016 71 35128ft 458kts
29-Jul-17 06:08 68.132896 -38.975860 69 35127ft 458kts
29-Jul-17 06:09 68.175216 -38.652920 71 35126ft 457kts
29-Jul-17 06:10 68.215528 -38.329970 71 35125ft 455kts
29-Jul-17 06:11 68.254937 -38.006612 71 35124ft 454kts
29-Jul-17 06:12 68.293784 -37.681302 72 35124ft 454kts
29-Jul-17 06:13 68.331914 -37.355528 72 35123ft 455kts
29-Jul-17 06:14 68.369453 -37.028268 72 35092ft 456kts
29-Jul-17 06:15 68.406456 -36.698965 72 35070ft 455kts
29-Jul-17 06:16 68.442309 -36.373190 73 35067ft 454kts
29-Jul-17 06:17 68.477884 -36.043059 73 35062ft 453kts
29-Jul-17 06:18 68.512621 -35.713676 73 35059ft 452kts
29-Jul-17 06:19 68.546756 -35.382844 73 35054ft 454kts
29-Jul-17 06:20 68.580383 -35.049558 73 35050ft 454kts
29-Jul-17 06:21 68.613254 -34.716274 74 35045ft 454kts
29-Jul-17 06:22 68.645399 -34.382716 74 35040ft 452kts
29-Jul-17 06:23 68.676887 -34.048111 74 35033ft 451kts
29-Jul-17 06:24 68.707583 -33.714101 74 35030ft 451kts
29-Jul-17 06:25 68.737643 -33.378863 74 35025ft 452kts
29-Jul-17 06:26 68.766923 -33.044016 74 35019ft 453kts
29-Jul-17 06:27 68.795735 -32.706034 75 35015ft 453kts
29-Jul-17 06:28 68.823894 -32.366977 75 35007ft 453kts
29-Jul-17 06:29 68.851430 -32.026358 75 35001ft 452kts
29-Jul-17 06:30 68.878190 -31.686113 75 34995ft 452kts
29-Jul-17 06:31 68.904360 -31.343877 75 34989ft 453kts
29-Jul-17 06:32 68.929787 -31.001639 76 34982ft 453kts
29-Jul-17 06:33 68.955878 -30.659368 76 34980ft 453kts
29-Jul-17 06:34 68.979191 -30.313455 76 34975ft 454kts
29-Jul-17 06:35 69.001245 -29.967612 80 34970ft 454kts
29-Jul-17 06:36 69.010339 -29.618971 83 34963ft 456kts
29-Jul-17 06:37 69.017697 -29.265068 83 34957ft 456kts
29-Jul-17 06:38 69.025801 -28.912380 81 34948ft 455kts
29-Jul-17 06:39 69.035507 -28.560124 82 34943ft 455kts
29-Jul-17 06:40 69.042810 -28.205996 83 34937ft 456kts
29-Jul-17 06:41 69.049096 -27.852701 83 34930ft 456kts
29-Jul-17 06:42 69.054650 -27.497741 83 34925ft 457kts
29-Jul-17 06:43 69.059447 -27.143098 84 34920ft 457kts
29-Jul-17 06:44 69.063515 -26.788092 84 34915ft 458kts
29-Jul-17 06:45 69.066857 -26.431614 84 34957ft 457kts
29-Jul-17 06:46 69.069438 -26.078810 84 34968ft 458kts
29-Jul-17 06:47 69.071308 -25.722393 85 34965ft 459kts
29-Jul-17 06:48 69.072442 -25.364039 85 34962ft 460kts
29-Jul-17 06:49 69.072829 -25.006335 85 34958ft 460kts
29-Jul-17 06:50 69.072467 -24.647137 85 34955ft 461kts
29-Jul-17 06:51 69.071358 -24.288602 86 34952ft 461kts
29-Jul-17 06:52 69.069494 -23.928825 86 34949ft 462kts
29-Jul-17 06:53 69.066867 -23.568503 87 34948ft 465kts
29-Jul-17 06:54 69.063471 -23.206715 87 34863ft 466kts
29-Jul-17 06:55 69.059288 -22.843102 87 34860ft 468kts
29-Jul-17 06:56 69.054390 -22.483328 88 34860ft 469kts
29-Jul-17 06:57 69.048653 -22.118462 88 34856ft 469kts
29-Jul-17 06:58 69.042143 -21.753722 89 34881ft 472kts
29-Jul-17 06:59 69.034782 -21.385835 90 34883ft 474kts
29-Jul-17 07:00 69.026645 -21.018423 90 34882ft 475kts
29-Jul-17 07:01 69.019115 -20.650333 91 34881ft 477kts
29-Jul-17 07:02 69.008335 -20.280248 92 34880ft 478kts
29-Jul-17 07:03 68.994941 -19.911500 97 34879ft 480kts
29-Jul-17 07:04 68.968183 -19.546108 100 34877ft 483kts
29-Jul-17 07:05 68.940282 -19.179999 100 34876ft 483kts
29-Jul-17 07:06 68.915166 -18.818762 99 34875ft 482kts
29-Jul-17 07:07 68.888712 -18.453879 100 34874ft 483kts
29-Jul-17 07:08 68.860433 -18.088668 101 34872ft 483kts
29-Jul-17 07:09 68.831352 -17.725528 102 34813ft 483kts
29-Jul-17 07:10 68.801387 -17.362364 102 34812ft 484kts
29-Jul-17 07:11 68.770699 -17.000784 103 34811ft 484kts
29-Jul-17 07:12 68.739306 -16.640904 103 34810ft 483kts
29-Jul-17 07:13 68.707053 -16.280975 104 34809ft 483kts
29-Jul-17 07:14 68.674192 -15.923740 104 34807ft 482kts
29-Jul-17 07:15 68.640632 -15.568159 105 34806ft 482kts
29-Jul-17 07:16 68.606576 -15.216200 105 34805ft 482kts
29-Jul-17 07:17 68.571529 -14.862717 105 34800ft 482kts
29-Jul-17 07:18 68.535806 -14.510959 105 34711ft 479kts
29-Jul-17 07:19 68.499409 -14.160904 106 34720ft 477kts
29-Jul-17 07:20 68.462546 -13.814373 106 34719ft 476kts
29-Jul-17 07:21 68.424895 -13.468327 106 34719ft 477kts
29-Jul-17 07:22 68.392993 -13.180987 107 34717ft 478kts
29-Jul-17 07:23 68.354052 -12.837175 107 34716ft 477kts
29-Jul-17 07:24 68.307753 -12.437743 107 34714ft 474kts
29-Jul-17 07:25 68.267646 -12.099476 107 34713ft 472kts
29-Jul-17 07:26 68.234186 -11.822522 107 34712ft 472kts
29-Jul-17 07:27 68.192802 -11.486087 108 34711ft 473kts
29-Jul-17 07:28 68.150793 -11.151346 108 34708ft 473kts
29-Jul-17 07:29 68.108139 -10.817842 108 34707ft 473kts
29-Jul-17 07:30 68.065710 -10.484694 109 34704ft 470kts
29-Jul-17 07:31 68.021386 -10.157526 109 34704ft 468kts
29-Jul-17 07:32 67.986994 -9.824828 99 34707ft 466kts
29-Jul-17 07:33 67.963514 -9.484614 100 34705ft 465kts
29-Jul-17 07:34 67.938458 -9.148496 100 34702ft 462kts
29-Jul-17 07:35 67.916062 -8.812536 99 34699ft 460kts
29-Jul-17 07:36 67.892081 -8.482149 100 34696ft 461kts
29-Jul-17 07:37 67.866516 -8.148406 100 34694ft 463kts
29-Jul-17 07:38 67.840010 -7.813336 101 34690ft 463kts
29-Jul-17 07:39 67.812963 -7.480924 101 34687ft 461kts
29-Jul-17 07:40 67.785443 -7.151711 101 34639ft 458kts
29-Jul-17 07:41 67.757281 -6.823474 100 34577ft 457kts
29-Jul-17 07:42 67.728577 -6.497279 101 34575ft 458kts
29-Jul-17 07:43 67.699037 -6.169887 101 34574ft 459kts
29-Jul-17 07:44 67.668867 -5.843609 101 34621ft 459kts
29-Jul-17 07:45 67.637983 -5.517524 101 34630ft 458kts
29-Jul-17 07:46 67.607016 -5.198076 102 34630ft 456kts
29-Jul-17 07:47 67.575167 -4.876911 102 34630ft 455kts
29-Jul-17 07:48 67.542575 -4.555559 102 34631ft 456kts
29-Jul-17 07:49 67.509464 -4.236194 103 34631ft 456kts
29-Jul-17 07:50 67.475545 -3.916037 103 34632ft 457kts
29-Jul-17 07:51 67.441134 -3.598069 103 34633ft 456kts
29-Jul-17 07:52 67.406165 -3.281613 103 34634ft 455kts
29-Jul-17 07:53 67.370533 -2.965694 104 34635ft 454kts
29-Jul-17 07:54 67.334458 -2.652215 104 34645ft 454kts
29-Jul-17 07:55 67.297768 -2.339639 104 34644ft 454kts
29-Jul-17 07:56 67.260591 -2.028983 105 34646ft 455kts
29-Jul-17 07:57 67.222615 -1.717651 105 34646ft 455kts
29-Jul-17 07:58 67.184079 -1.407631 105 34646ft 454kts
29-Jul-17 07:59 67.144877 -1.098062 105 34655ft 454kts
29-Jul-17 08:00 67.105219 -0.790431 105 34656ft 454kts
29-Jul-17 08:01 67.065978 -0.483793 106 34655ft 452kts
29-Jul-17 08:02 67.024386 -0.178449 106 34655ft 453kts
29-Jul-17 08:03 66.980593 0.123427 111 34657ft 454kts
29-Jul-17 08:04 66.929637 0.419512 111 34656ft 455kts
29-Jul-17 08:05 66.878586 0.713680 111 34656ft 454kts
29-Jul-17 08:06 66.829688 1.006884 110 34658ft 455kts
29-Jul-17 08:07 66.779330 1.302067 111 34658ft 455kts
29-Jul-17 08:08 66.727990 1.594284 112 34658ft 454kts
29-Jul-17 08:09 66.676076 1.884846 112 34661ft 454kts
29-Jul-17 08:10 66.623436 2.175129 112 34661ft 455kts
29-Jul-17 08:11 66.570356 2.463655 113 34662ft 455kts
29-Jul-17 08:12 66.516714 2.751119 113 34662ft 456kts
29-Jul-17 08:13 66.462283 3.038742 113 34662ft 456kts
29-Jul-17 08:14 66.407462 3.324385 114 34662ft 457kts
29-Jul-17 08:15 66.352086 3.608979 114 34664ft 456kts
29-Jul-17 08:16 66.296654 3.889976 114 34663ft 456kts
29-Jul-17 08:17 66.240321 4.171711 115 34664ft 456kts
29-Jul-17 08:18 66.183295 4.453085 115 34663ft 457kts
29-Jul-17 08:19 66.125809 4.732958 115 34662ft 457kts
29-Jul-17 08:20 66.067749 5.011899 116 34663ft 458kts
29-Jul-17 08:21 66.008911 5.290874 116 34669ft 459kts
29-Jul-17 08:22 65.949737 5.567797 116 34669ft 458kts
29-Jul-17 08:23 65.890074 5.843416 117 34669ft 458kts
29-Jul-17 08:24 65.829733 6.118611 117 34667ft 458kts
29-Jul-17 08:25 65.769989 6.392676 117 34668ft 458kts
29-Jul-17 08:26 65.708676 6.662075 118 34669ft 459kts
29-Jul-17 08:27 65.647104 6.933645 116 34669ft 460kts
29-Jul-17 08:28 65.590965 7.211401 115 34668ft 460kts
29-Jul-17 08:29 65.533547 7.488656 116 34668ft 460kts
29-Jul-17 08:30 65.477018 7.765181 114 34668ft 461kts
29-Jul-17 08:31 65.420439 8.041621 116 34668ft 461kts
29-Jul-17 08:32 65.362352 8.316816 116 34669ft 462kts
29-Jul-17 08:33 65.303704 8.590371 117 34669ft 462kts
29-Jul-17 08:34 65.244321 8.863704 117 34669ft 463kts
29-Jul-17 08:35 65.184507 9.135515 117 34668ft 463kts
29-Jul-17 08:36 65.124782 9.403507 117 34669ft 464kts
29-Jul-17 08:37 65.063655 9.674368 117 34668ft 464kts
29-Jul-17 08:38 65.002213 9.943238 118 34669ft 465kts
29-Jul-17 08:39 64.940114 10.211633 118 34669ft 467kts
29-Jul-17 08:40 64.877261 10.479932 118 34669ft 467kts
29-Jul-17 08:41 64.814037 10.746532 119 34668ft 468kts
29-Jul-17 08:42 64.750278 11.012117 119 34668ft 468kts
29-Jul-17 08:43 64.685701 11.277863 119 34669ft 469kts
29-Jul-17 08:44 64.620785 11.541796 119 34668ft 470kts
29-Jul-17 08:45 64.554959 11.806230 120 34667ft 472kts
29-Jul-17 08:46 64.489210 12.067227 120 34666ft 473kts
29-Jul-17 08:47 64.422227 12.329996 120 34655ft 474kts
29-Jul-17 08:48 64.354602 12.592151 120 34648ft 473kts
29-Jul-17 08:49 64.286906 12.851540 121 34649ft 473kts
29-Jul-17 08:50 64.218613 13.110190 121 34649ft 474kts
29-Jul-17 08:51 64.150112 13.370290 121 34640ft 476kts
29-Jul-17 08:52 64.079821 13.627831 122 34653ft 478kts
29-Jul-17 08:53 64.005737 13.880098 128 34656ft 480kts
29-Jul-17 08:54 63.921041 14.116134 129 34659ft 480kts
29-Jul-17 08:55 63.836660 14.350600 129 34662ft 481kts
29-Jul-17 08:56 63.753961 14.585761 129 34663ft 482kts
29-Jul-17 08:57 63.669475 14.821326 130 34665ft 484kts
29-Jul-17 08:58 63.584094 15.055530 130 34669ft 485kts
29-Jul-17 08:59 63.497834 15.289504 131 34669ft 486kts
29-Jul-17 09:00 63.411427 15.521405 131 34670ft 486kts
29-Jul-17 09:01 63.324666 15.751869 131 34671ft 486kts
29-Jul-17 09:02 63.237211 15.981782 131 34674ft 486kts
29-Jul-17 09:03 63.149523 16.209964 132 34684ft 487kts
29-Jul-17 09:04 63.060989 16.437996 132 34689ft 488kts
29-Jul-17 09:05 62.972190 16.664384 133 34696ft 489kts
29-Jul-17 09:06 62.883951 16.887091 133 34699ft 490kts
29-Jul-17 09:07 62.793984 17.111899 133 34698ft 490kts
29-Jul-17 09:08 62.703841 17.334878 134 34700ft 491kts
29-Jul-17 09:09 62.613232 17.556800 135 34698ft 491kts
29-Jul-17 09:10 62.521838 17.778412 135 34698ft 492kts
29-Jul-17 09:11 62.430203 17.998410 135 34700ft 493kts
29-Jul-17 09:12 62.337903 18.217820 136 34703ft 493kts
29-Jul-17 09:13 62.245605 18.435079 136 34711ft 492kts
29-Jul-17 09:14 62.153058 18.650815 136 34716ft 492kts
29-Jul-17 09:15 62.060018 18.865585 136 34721ft 491kts
29-Jul-17 09:16 61.968162 19.076589 136 34742ft 492kts
29-Jul-17 09:17 61.874691 19.288746 137 34748ft 492kts
29-Jul-17 09:18 61.780400 19.499073 137 34753ft 491kts
29-Jul-17 09:19 61.694434 19.723717 131 34759ft 494kts
29-Jul-17 09:20 61.610637 19.953000 131 34785ft 494kts
29-Jul-17 09:21 61.526430 20.181843 130 34800ft 494kts
29-Jul-17 09:22 61.442822 20.409736 131 34815ft 494kts
29-Jul-17 09:23 61.358062 20.635773 132 34818ft 493kts
29-Jul-17 09:24 61.273358 20.859213 132 34818ft 492kts
29-Jul-17 09:25 61.203077 21.042944 132 34819ft 491kts
29-Jul-17 09:26 61.144243 21.195629 132 34820ft 490kts
29-Jul-17 09:27 61.059068 21.414898 133 34822ft 489kts
29-Jul-17 09:28 60.973729 21.632773 132 34826ft 489kts
29-Jul-17 09:29 60.914350 21.784852 133 34830ft 488kts
29-Jul-17 09:30 60.842505 21.964022 133 34837ft 488kts
29-Jul-17 09:31 60.756362 22.177974 133 34841ft 483kts
29-Jul-17 09:32 60.670684 22.389325 134 34845ft 484kts
29-Jul-17 09:33 60.586355 22.595139 135 34365ft 456kts
29-Jul-17 09:34 60.506837 22.791381 134 32241ft 443kts
29-Jul-17 09:35 60.429316 22.980498 135 30132ft 430kts
29-Jul-17 09:36 60.354313 23.160912 135 28086ft 419kts
29-Jul-17 09:37 60.279802 23.338617 135 26019ft 409kts
29-Jul-17 09:38 60.206943 23.511043 134 23954ft 401kts
29-Jul-17 09:39 60.135390 23.679127 134 21985ft 391kts
29-Jul-17 09:40 60.065061 23.843145 134 20048ft 382kts
29-Jul-17 09:41 59.996604 24.002735 133 18150ft 374kts
29-Jul-17 09:42 59.929287 24.158148 134 16307ft 364kts
29-Jul-17 09:43 59.863568 24.307332 134 14532ft 353kts
29-Jul-17 09:44 59.799699 24.451915 133 12796ft 343kts
29-Jul-17 09:45 59.742698 24.602281 128 11066ft 336kts
29-Jul-17 09:46 59.689353 24.742079 129 10188ft 311kts
29-Jul-17 09:47 59.639784 24.869783 129 8958ft 282kts
29-Jul-17 09:48 59.592452 24.991296 129 7629ft 275kts
29-Jul-17 09:49 59.547285 25.107474 129 6492ft 263kts
29-Jul-17 09:50 59.500806 25.217033 145 5222ft 257kts
29-Jul-17 09:51 59.434080 25.232491 204 4847ft 245kts
29-Jul-17 09:52 59.414255 25.135514 304 3900ft 208kts
29-Jul-17 09:53 59.459469 25.161945 67 2262ft 208kts
29-Jul-17 09:54 59.464344 25.276636 89 2203ft 213kts
29-Jul-17 09:55 59.424979 25.321946 212 2224ft 205kts
29-Jul-17 09:56 59.409423 25.221471 270 2193ft 199kts
29-Jul-17 09:57 59.417116 25.121560 272 2198ft 186kts
29-Jul-17 09:58 59.412419 25.019450 268 2179ft 181kts
29-Jul-17 09:59 59.412989 24.927209 274 985ft 155kts
29-Jul-17 10:00 59.413229 24.845294 271 146ft 122kts
29-Jul-17 10:01 59.414351 24.823327 300 145ft 20kts
29-Jul-17 10:02 59.414997 24.812766 292 145ft 9kts
29-Jul-17 10:03 59.417103 24.810469 346 145ft 10kts
29-Jul-17 10:04 59.417932 24.810357 1 145ft 0kts
29-Jul-17 10:05 59.417932 24.810357 1 145ft 0kts

Navigation Log

Ident Type
Flight plan parsing failed, navigation log unavailable